Villa Nueva de Guaymallen, Argentina
Current Conditions -  °F | °C
As of 5:00 AM on Saturday 29 Nov 2014 (Local Time) from SAME Reporting Station
Clear Clear  
Wind Chill: 22°   Ceiling: Unl
Heat Index: 22°   Visibility: 6mi
Dew Point:   Wind: 12mph
Humidity: 35%   Direction: 140°SE
Pressure: 29.56"   Gusts: NA
Location:  32.9°S, 68.78°W
Report Text: SAME 290800Z 14010KT CAVOK 22/06 Q1001
Loading
Personal Weather Stations






























Interactive Weather Map New forecast layout! Learn more

10-Day Weather Forecast

Advertisements
Track Severe Weather on mobile